sensor_id;sensor_type;location;lat;lon;timestamp;P1;durP1;ratioP1;P2;durP2;ratioP2
9547;SDS011;4812;51.992;8.648;2023-02-28T00:00:22;7.57;;;6.73;;
9547;SDS011;4812;51.992;8.648;2023-02-28T00:05:48;6.00;;;5.40;;
9547;SDS011;4812;51.992;8.648;2023-02-28T00:08:16;9.17;;;5.63;;
9547;SDS011;4812;51.992;8.648;2023-02-28T00:10:43;8.07;;;6.23;;
9547;SDS011;4812;51.992;8.648;2023-02-28T00:13:12;7.07;;;6.10;;
9547;SDS011;4812;51.992;8.648;2023-02-28T00:18:38;5.20;;;4.70;;
9547;SDS011;4812;51.992;8.648;2023-02-28T00:21:06;4.87;;;4.47;;
9547;SDS011;4812;51.992;8.648;2023-02-28T00:23:34;4.70;;;4.30;;
9547;SDS011;4812;51.992;8.648;2023-02-28T00:26:02;8.87;;;5.10;;
9547;SDS011;4812;51.992;8.648;2023-02-28T00:31:14;6.30;;;4.63;;
9547;SDS011;4812;51.992;8.648;2023-02-28T00:33:41;5.00;;;4.40;;
9547;SDS011;4812;51.992;8.648;2023-02-28T00:36:09;4.73;;;4.33;;
9547;SDS011;4812;51.992;8.648;2023-02-28T00:38:38;4.93;;;4.50;;
9547;SDS011;4812;51.992;8.648;2023-02-28T00:44:04;7.40;;;4.57;;
9547;SDS011;4812;51.992;8.648;2023-02-28T00:46:33;5.53;;;4.50;;
9547;SDS011;4812;51.992;8.648;2023-02-28T00:49:01;5.30;;;4.80;;
9547;SDS011;4812;51.992;8.648;2023-02-28T00:51:28;7.20;;;5.23;;
9547;SDS011;4812;51.992;8.648;2023-02-28T00:53:56;5.60;;;5.00;;
9547;SDS011;4812;51.992;8.648;2023-02-28T00:59:12;6.30;;;4.67;;
9547;SDS011;4812;51.992;8.648;2023-02-28T01:01:41;5.10;;;4.23;;
9547;SDS011;4812;51.992;8.648;2023-02-28T01:04:09;6.67;;;5.30;;
9547;SDS011;4812;51.992;8.648;2023-02-28T01:06:37;4.80;;;4.40;;
9547;SDS011;4812;51.992;8.648;2023-02-28T01:12:06;5.53;;;5.00;;
9547;SDS011;4812;51.992;8.648;2023-02-28T01:14:34;5.63;;;5.00;;
9547;SDS011;4812;51.992;8.648;2023-02-28T01:17:03;4.53;;;4.20;;
9547;SDS011;4812;51.992;8.648;2023-02-28T01:19:30;7.20;;;4.80;;
9547;SDS011;4812;51.992;8.648;2023-02-28T01:22:00;6.83;;;5.10;;
9547;SDS011;4812;51.992;8.648;2023-02-28T01:24:28;6.27;;;4.80;;
9547;SDS011;4812;51.992;8.648;2023-02-28T01:26:55;7.67;;;5.37;;
9547;SDS011;4812;51.992;8.648;2023-02-28T01:29:23;7.00;;;5.40;;
9547;SDS011;4812;51.992;8.648;2023-02-28T01:31:51;5.60;;;4.87;;
9547;SDS011;4812;51.992;8.648;2023-02-28T01:34:20;8.07;;;5.93;;
9547;SDS011;4812;51.992;8.648;2023-02-28T01:39:45;6.03;;;5.47;;
9547;SDS011;4812;51.992;8.648;2023-02-28T01:42:12;6.30;;;5.30;;
9547;SDS011;4812;51.992;8.648;2023-02-28T01:45:16;7.00;;;5.10;;
9547;SDS011;4812;51.992;8.648;2023-02-28T01:47:46;6.03;;;5.07;;
9547;SDS011;4812;51.992;8.648;2023-02-28T01:50:17;5.07;;;4.53;;
9547;SDS011;4812;51.992;8.648;2023-02-28T01:55:30;6.03;;;5.07;;
9547;SDS011;4812;51.992;8.648;2023-02-28T02:01:00;10.73;;;5.27;;
9547;SDS011;4812;51.992;8.648;2023-02-28T02:03:29;8.10;;;5.93;;
9547;SDS011;4812;51.992;8.648;2023-02-28T02:05:58;7.40;;;5.73;;
9547;SDS011;4812;51.992;8.648;2023-02-28T02:08:26;7.00;;;5.57;;
9547;SDS011;4812;51.992;8.648;2023-02-28T02:10:56;8.37;;;5.43;;
9547;SDS011;4812;51.992;8.648;2023-02-28T02:13:28;6.00;;;5.50;;
9547;SDS011;4812;51.992;8.648;2023-02-28T02:16:04;6.27;;;5.57;;
9547;SDS011;4812;51.992;8.648;2023-02-28T02:18:40;8.60;;;5.53;;
9547;SDS011;4812;51.992;8.648;2023-02-28T02:21:18;6.50;;;5.77;;
9547;SDS011;4812;51.992;8.648;2023-02-28T02:24:22;7.30;;;6.03;;
9547;SDS011;4812;51.992;8.648;2023-02-28T02:33:22;11.57;;;5.57;;
9547;SDS011;4812;51.992;8.648;2023-02-28T02:36:00;9.33;;;6.20;;
9547;SDS011;4812;51.992;8.648;2023-02-28T02:38:32;8.13;;;5.40;;
9547;SDS011;4812;51.992;8.648;2023-02-28T02:41:03;6.90;;;6.20;;
9547;SDS011;4812;51.992;8.648;2023-02-28T02:43:34;6.63;;;6.00;;
9547;SDS011;4812;51.992;8.648;2023-02-28T02:46:04;10.13;;;6.10;;
9547;SDS011;4812;51.992;8.648;2023-02-28T02:48:34;7.27;;;6.53;;
9547;SDS011;4812;51.992;8.648;2023-02-28T02:51:06;7.00;;;5.70;;
9547;SDS011;4812;51.992;8.648;2023-02-28T02:56:42;8.83;;;6.40;;
9547;SDS011;4812;51.992;8.648;2023-02-28T02:59:12;8.17;;;6.40;;
9547;SDS011;4812;51.992;8.648;2023-02-28T03:01:41;7.03;;;6.37;;
9547;SDS011;4812;51.992;8.648;2023-02-28T03:04:09;8.13;;;6.67;;
9547;SDS011;4812;51.992;8.648;2023-02-28T03:06:41;7.93;;;5.83;;
9547;SDS011;4812;51.992;8.648;2023-02-28T03:09:08;6.70;;;6.10;;
9547;SDS011;4812;51.992;8.648;2023-02-28T03:11:38;6.30;;;5.80;;
9547;SDS011;4812;51.992;8.648;2023-02-28T03:14:22;8.00;;;6.20;;
9547;SDS011;4812;51.992;8.648;2023-02-28T03:19:58;5.83;;;5.30;;
9547;SDS011;4812;51.992;8.648;2023-02-28T03:25:29;6.90;;;6.30;;
9547;SDS011;4812;51.992;8.648;2023-02-28T03:28:02;6.33;;;5.73;;
9547;SDS011;4812;51.992;8.648;2023-02-28T03:30:35;7.40;;;6.80;;
9547;SDS011;4812;51.992;8.648;2023-02-28T03:33:08;6.97;;;6.33;;
9547;SDS011;4812;51.992;8.648;2023-02-28T03:35:39;7.13;;;6.23;;
9547;SDS011;4812;51.992;8.648;2023-02-28T03:38:08;9.10;;;6.57;;
9547;SDS011;4812;51.992;8.648;2023-02-28T03:41:12;7.73;;;6.30;;
9547;SDS011;4812;51.992;8.648;2023-02-28T03:43:41;7.47;;;6.83;;
9547;SDS011;4812;51.992;8.648;2023-02-28T03:46:12;8.23;;;6.53;;
9547;SDS011;4812;51.992;8.648;2023-02-28T03:48:43;7.93;;;5.97;;
9547;SDS011;4812;51.992;8.648;2023-02-28T03:51:14;7.43;;;6.37;;
9547;SDS011;4812;51.992;8.648;2023-02-28T03:53:44;7.30;;;6.60;;
9547;SDS011;4812;51.992;8.648;2023-02-28T03:56:16;7.13;;;6.20;;
9547;SDS011;4812;51.992;8.648;2023-02-28T03:58:46;7.70;;;6.53;;
9547;SDS011;4812;51.992;8.648;2023-02-28T04:01:15;6.63;;;6.03;;
9547;SDS011;4812;51.992;8.648;2023-02-28T04:03:45;9.60;;;7.60;;
9547;SDS011;4812;51.992;8.648;2023-02-28T04:06:13;9.20;;;6.03;;
9547;SDS011;4812;51.992;8.648;2023-02-28T04:11:43;7.37;;;6.67;;
9547;SDS011;4812;51.992;8.648;2023-02-28T04:14:12;8.70;;;6.97;;
9547;SDS011;4812;51.992;8.648;2023-02-28T04:16:41;7.07;;;5.63;;
9547;SDS011;4812;51.992;8.648;2023-02-28T04:19:10;6.90;;;6.17;;
9547;SDS011;4812;51.992;8.648;2023-02-28T04:21:39;8.30;;;7.43;;
9547;SDS011;4812;51.992;8.648;2023-02-28T04:27:09;9.77;;;6.03;;
9547;SDS011;4812;51.992;8.648;2023-02-28T04:29:36;7.93;;;6.37;;
9547;SDS011;4812;51.992;8.648;2023-02-28T04:35:05;6.57;;;5.93;;
9547;SDS011;4812;51.992;8.648;2023-02-28T04:37:35;7.97;;;6.27;;
9547;SDS011;4812;51.992;8.648;2023-02-28T04:40:03;7.93;;;6.20;;
9547;SDS011;4812;51.992;8.648;2023-02-28T04:42:32;7.73;;;6.87;;
9547;SDS011;4812;51.992;8.648;2023-02-28T04:45:02;9.67;;;6.53;;
9547;SDS011;4812;51.992;8.648;2023-02-28T04:47:29;8.53;;;7.00;;
9547;SDS011;4812;51.992;8.648;2023-02-28T04:49:57;8.47;;;6.97;;
9547;SDS011;4812;51.992;8.648;2023-02-28T04:52:24;7.33;;;6.73;;
9547;SDS011;4812;51.992;8.648;2023-02-28T04:54:54;7.53;;;6.43;;
9547;SDS011;4812;51.992;8.648;2023-02-28T04:57:21;7.83;;;6.33;;
9547;SDS011;4812;51.992;8.648;2023-02-28T05:02:39;7.20;;;6.60;;
9547;SDS011;4812;51.992;8.648;2023-02-28T05:05:06;7.43;;;5.80;;
9547;SDS011;4812;51.992;8.648;2023-02-28T05:07:34;6.33;;;5.67;;
9547;SDS011;4812;51.992;8.648;2023-02-28T05:10:01;6.83;;;6.23;;
9547;SDS011;4812;51.992;8.648;2023-02-28T05:15:19;7.23;;;5.97;;
9547;SDS011;4812;51.992;8.648;2023-02-28T05:17:48;11.20;;;6.00;;
9547;SDS011;4812;51.992;8.648;2023-02-28T05:20:16;6.63;;;6.03;;
9547;SDS011;4812;51.992;8.648;2023-02-28T05:22:43;6.63;;;6.03;;
9547;SDS011;4812;51.992;8.648;2023-02-28T05:25:11;6.80;;;6.20;;
9547;SDS011;4812;51.992;8.648;2023-02-28T05:27:41;7.47;;;6.67;;
9547;SDS011;4812;51.992;8.648;2023-02-28T05:30:09;7.67;;;6.70;;
9547;SDS011;4812;51.992;8.648;2023-02-28T05:32:37;7.30;;;6.50;;
9547;SDS011;4812;51.992;8.648;2023-02-28T05:35:07;7.53;;;6.60;;
9547;SDS011;4812;51.992;8.648;2023-02-28T05:37:35;7.20;;;6.50;;
9547;SDS011;4812;51.992;8.648;2023-02-28T05:42:51;13.57;;;7.70;;
9547;SDS011;4812;51.992;8.648;2023-02-28T05:45:19;8.47;;;7.20;;
9547;SDS011;4812;51.992;8.648;2023-02-28T05:47:46;8.70;;;7.57;;
9547;SDS011;4812;51.992;8.648;2023-02-28T05:50:15;7.47;;;6.63;;
9547;SDS011;4812;51.992;8.648;2023-02-28T05:52:43;6.73;;;6.10;;
9547;SDS011;4812;51.992;8.648;2023-02-28T05:58:12;6.20;;;5.60;;
9547;SDS011;4812;51.992;8.648;2023-02-28T06:00:40;10.20;;;6.23;;
9547;SDS011;4812;51.992;8.648;2023-02-28T06:03:07;9.00;;;6.43;;
9547;SDS011;4812;51.992;8.648;2023-02-28T06:08:35;7.50;;;6.43;;
9547;SDS011;4812;51.992;8.648;2023-02-28T06:11:02;10.33;;;6.87;;
9547;SDS011;4812;51.992;8.648;2023-02-28T06:13:30;8.77;;;6.90;;
9547;SDS011;4812;51.992;8.648;2023-02-28T06:16:00;7.53;;;6.83;;
9547;SDS011;4812;51.992;8.648;2023-02-28T06:21:25;9.77;;;7.23;;
9547;SDS011;4812;51.992;8.648;2023-02-28T06:23:56;9.50;;;6.90;;
9547;SDS011;4812;51.992;8.648;2023-02-28T06:28:53;7.27;;;6.37;;
9547;SDS011;4812;51.992;8.648;2023-02-28T06:31:21;11.30;;;6.47;;
9547;SDS011;4812;51.992;8.648;2023-02-28T06:33:49;7.40;;;6.33;;
9547;SDS011;4812;51.992;8.648;2023-02-28T06:36:17;8.77;;;7.07;;
9547;SDS011;4812;51.992;8.648;2023-02-28T06:41:37;11.47;;;7.43;;
9547;SDS011;4812;51.992;8.648;2023-02-28T06:44:21;9.80;;;7.37;;
9547;SDS011;4812;51.992;8.648;2023-02-28T06:46:48;12.87;;;7.43;;
9547;SDS011;4812;51.992;8.648;2023-02-28T06:49:16;9.70;;;7.00;;
9547;SDS011;4812;51.992;8.648;2023-02-28T06:51:45;8.37;;;7.40;;
9547;SDS011;4812;51.992;8.648;2023-02-28T06:54:13;7.80;;;7.00;;
9547;SDS011;4812;51.992;8.648;2023-02-28T06:56:41;8.13;;;7.33;;
9547;SDS011;4812;51.992;8.648;2023-02-28T06:59:09;9.77;;;7.07;;
9547;SDS011;4812;51.992;8.648;2023-02-28T07:01:37;10.63;;;7.77;;
9547;SDS011;4812;51.992;8.648;2023-02-28T07:04:05;10.43;;;7.73;;
9547;SDS011;4812;51.992;8.648;2023-02-28T07:06:32;10.90;;;8.50;;
9547;SDS011;4812;51.992;8.648;2023-02-28T07:09:00;13.17;;;7.60;;
9547;SDS011;4812;51.992;8.648;2023-02-28T07:11:27;9.53;;;8.50;;
9547;SDS011;4812;51.992;8.648;2023-02-28T07:16:54;12.67;;;8.27;;
9547;SDS011;4812;51.992;8.648;2023-02-28T07:19:21;11.57;;;8.10;;
9547;SDS011;4812;51.992;8.648;2023-02-28T07:21:49;7.90;;;7.10;;
9547;SDS011;4812;51.992;8.648;2023-02-28T07:24:16;9.87;;;7.63;;
9547;SDS011;4812;51.992;8.648;2023-02-28T07:29:32;11.77;;;7.80;;
9547;SDS011;4812;51.992;8.648;2023-02-28T07:32:01;9.23;;;7.77;;
9547;SDS011;4812;51.992;8.648;2023-02-28T07:34:29;11.80;;;8.00;;
9547;SDS011;4812;51.992;8.648;2023-02-28T07:36:56;9.73;;;8.00;;
9547;SDS011;4812;51.992;8.648;2023-02-28T07:42:12;14.57;;;8.67;;
9547;SDS011;4812;51.992;8.648;2023-02-28T07:44:40;12.60;;;9.10;;
9547;SDS011;4812;51.992;8.648;2023-02-28T07:47:09;15.23;;;10.60;;
9547;SDS011;4812;51.992;8.648;2023-02-28T07:49:37;11.27;;;9.50;;
9547;SDS011;4812;51.992;8.648;2023-02-28T07:52:06;14.60;;;9.80;;
9547;SDS011;4812;51.992;8.648;2023-02-28T07:54:34;12.07;;;9.30;;
9547;SDS011;4812;51.992;8.648;2023-02-28T07:59:41;14.43;;;10.63;;
9547;SDS011;4812;51.992;8.648;2023-02-28T08:02:12;12.90;;;10.33;;
9547;SDS011;4812;51.992;8.648;2023-02-28T08:04:41;12.00;;;10.40;;
9547;SDS011;4812;51.992;8.648;2023-02-28T08:07:08;12.43;;;11.13;;
9547;SDS011;4812;51.992;8.648;2023-02-28T08:09:39;13.90;;;12.10;;
9547;SDS011;4812;51.992;8.648;2023-02-28T08:12:06;12.80;;;11.50;;
9547;SDS011;4812;51.992;8.648;2023-02-28T08:14:35;12.67;;;11.60;;
9547;SDS011;4812;51.992;8.648;2023-02-28T08:17:03;13.13;;;11.93;;
9547;SDS011;4812;51.992;8.648;2023-02-28T08:19:32;12.53;;;11.33;;
9547;SDS011;4812;51.992;8.648;2023-02-28T08:22:00;13.07;;;11.77;;
9547;SDS011;4812;51.992;8.648;2023-02-28T08:24:27;13.50;;;12.30;;
9547;SDS011;4812;51.992;8.648;2023-02-28T08:26:55;14.13;;;12.63;;
9547;SDS011;4812;51.992;8.648;2023-02-28T08:29:22;14.10;;;12.07;;
9547;SDS011;4812;51.992;8.648;2023-02-28T08:31:50;12.50;;;11.30;;
9547;SDS011;4812;51.992;8.648;2023-02-28T08:34:17;12.70;;;11.63;;
9547;SDS011;4812;51.992;8.648;2023-02-28T08:36:46;13.43;;;12.13;;
9547;SDS011;4812;51.992;8.648;2023-02-28T08:39:14;13.27;;;12.03;;
9547;SDS011;4812;51.992;8.648;2023-02-28T08:41:42;12.13;;;11.13;;
9547;SDS011;4812;51.992;8.648;2023-02-28T08:44:10;12.03;;;11.03;;
9547;SDS011;4812;51.992;8.648;2023-02-28T08:46:37;11.67;;;10.80;;
9547;SDS011;4812;51.992;8.648;2023-02-28T08:49:05;11.13;;;10.33;;
9547;SDS011;4812;51.992;8.648;2023-02-28T08:51:33;10.83;;;10.13;;
9547;SDS011;4812;51.992;8.648;2023-02-28T08:54:02;12.10;;;11.10;;
9547;SDS011;4812;51.992;8.648;2023-02-28T08:56:29;12.00;;;11.03;;
9547;SDS011;4812;51.992;8.648;2023-02-28T08:58:57;14.50;;;13.10;;
9547;SDS011;4812;51.992;8.648;2023-02-28T09:01:25;13.63;;;12.33;;
9547;SDS011;4812;51.992;8.648;2023-02-28T09:03:55;14.37;;;12.73;;
9547;SDS011;4812;51.992;8.648;2023-02-28T09:06:24;13.70;;;12.33;;
9547;SDS011;4812;51.992;8.648;2023-02-28T09:08:55;12.07;;;11.07;;
9547;SDS011;4812;51.992;8.648;2023-02-28T09:11:25;11.23;;;10.43;;
9547;SDS011;4812;51.992;8.648;2023-02-28T09:13:53;12.70;;;11.40;;
9547;SDS011;4812;51.992;8.648;2023-02-28T09:16:21;12.20;;;11.17;;
9547;SDS011;4812;51.992;8.648;2023-02-28T09:18:49;12.23;;;11.03;;
9547;SDS011;4812;51.992;8.648;2023-02-28T09:21:17;12.27;;;11.27;;
9547;SDS011;4812;51.992;8.648;2023-02-28T09:23:45;12.73;;;11.57;;
9547;SDS011;4812;51.992;8.648;2023-02-28T09:26:15;12.47;;;11.47;;
9547;SDS011;4812;51.992;8.648;2023-02-28T09:28:44;13.80;;;12.87;;
9547;SDS011;4812;51.992;8.648;2023-02-28T09:31:12;14.80;;;13.70;;
9547;SDS011;4812;51.992;8.648;2023-02-28T09:33:41;15.20;;;14.10;;
9547;SDS011;4812;51.992;8.648;2023-02-28T09:36:09;14.93;;;13.83;;
9547;SDS011;4812;51.992;8.648;2023-02-28T09:38:36;15.53;;;14.13;;
9547;SDS011;4812;51.992;8.648;2023-02-28T09:41:08;12.93;;;12.03;;
9547;SDS011;4812;51.992;8.648;2023-02-28T09:43:40;13.37;;;12.27;;
9547;SDS011;4812;51.992;8.648;2023-02-28T09:50:11;12.43;;;11.23;;
9547;SDS011;4812;51.992;8.648;2023-02-28T09:52:45;12.20;;;11.10;;
9547;SDS011;4812;51.992;8.648;2023-02-28T09:55:18;10.90;;;9.90;;
9547;SDS011;4812;51.992;8.648;2023-02-28T09:57:48;10.67;;;9.87;;
9547;SDS011;4812;51.992;8.648;2023-02-28T10:00:18;10.23;;;9.43;;
9547;SDS011;4812;51.992;8.648;2023-02-28T10:02:51;10.10;;;9.30;;
9547;SDS011;4812;51.992;8.648;2023-02-28T10:05:27;10.20;;;9.40;;
9547;SDS011;4812;51.992;8.648;2023-02-28T10:08:00;10.03;;;9.23;;
9547;SDS011;4812;51.992;8.648;2023-02-28T10:10:33;10.23;;;9.50;;
9547;SDS011;4812;51.992;8.648;2023-02-28T10:13:04;10.87;;;10.07;;
9547;SDS011;4812;51.992;8.648;2023-02-28T10:15:34;10.07;;;9.37;;
9547;SDS011;4812;51.992;8.648;2023-02-28T10:18:03;10.03;;;9.33;;
9547;SDS011;4812;51.992;8.648;2023-02-28T10:20:37;10.50;;;9.60;;
9547;SDS011;4812;51.992;8.648;2023-02-28T10:25:58;10.53;;;9.80;;
9547;SDS011;4812;51.992;8.648;2023-02-28T10:31:29;9.93;;;9.30;;
9547;SDS011;4812;51.992;8.648;2023-02-28T10:33:57;9.40;;;8.70;;
9547;SDS011;4812;51.992;8.648;2023-02-28T10:36:26;9.90;;;9.10;;
9547;SDS011;4812;51.992;8.648;2023-02-28T10:38:54;9.63;;;9.03;;
9547;SDS011;4812;51.992;8.648;2023-02-28T10:42:26;10.17;;;9.33;;
9547;SDS011;4812;51.992;8.648;2023-02-28T10:45:04;10.10;;;9.10;;
9547;SDS011;4812;51.992;8.648;2023-02-28T10:47:33;10.03;;;9.40;;
9547;SDS011;4812;51.992;8.648;2023-02-28T10:50:02;9.37;;;8.67;;
9547;SDS011;4812;51.992;8.648;2023-02-28T10:55:29;9.23;;;8.50;;
9547;SDS011;4812;51.992;8.648;2023-02-28T10:57:59;9.10;;;8.40;;
9547;SDS011;4812;51.992;8.648;2023-02-28T11:03:31;8.17;;;7.50;;
9547;SDS011;4812;51.992;8.648;2023-02-28T11:06:04;8.33;;;7.83;;
9547;SDS011;4812;51.992;8.648;2023-02-28T11:08:32;8.50;;;8.00;;
9547;SDS011;4812;51.992;8.648;2023-02-28T11:11:01;8.23;;;7.73;;
9547;SDS011;4812;51.992;8.648;2023-02-28T11:13:34;8.40;;;7.90;;
9547;SDS011;4812;51.992;8.648;2023-02-28T11:16:04;8.30;;;7.70;;
9547;SDS011;4812;51.992;8.648;2023-02-28T11:18:36;7.80;;;7.30;;
9547;SDS011;4812;51.992;8.648;2023-02-28T11:21:06;8.13;;;7.63;;
9547;SDS011;4812;51.992;8.648;2023-02-28T11:23:35;8.77;;;8.10;;
9547;SDS011;4812;51.992;8.648;2023-02-28T11:26:04;8.77;;;8.17;;
9547;SDS011;4812;51.992;8.648;2023-02-28T11:28:37;8.13;;;7.73;;
9547;SDS011;4812;51.992;8.648;2023-02-28T11:31:14;8.87;;;8.30;;
9547;SDS011;4812;51.992;8.648;2023-02-28T11:33:46;10.40;;;9.60;;
9547;SDS011;4812;51.992;8.648;2023-02-28T11:36:17;12.77;;;11.30;;
9547;SDS011;4812;51.992;8.648;2023-02-28T11:38:47;8.43;;;7.93;;
9547;SDS011;4812;51.992;8.648;2023-02-28T11:41:19;9.13;;;8.40;;
9547;SDS011;4812;51.992;8.648;2023-02-28T11:43:58;9.00;;;8.40;;
9547;SDS011;4812;51.992;8.648;2023-02-28T11:46:32;8.47;;;8.03;;
9547;SDS011;4812;51.992;8.648;2023-02-28T11:49:06;9.20;;;8.60;;
9547;SDS011;4812;51.992;8.648;2023-02-28T11:51:48;9.10;;;8.53;;
9547;SDS011;4812;51.992;8.648;2023-02-28T11:54:27;9.33;;;8.77;;
9547;SDS011;4812;51.992;8.648;2023-02-28T11:57:03;9.00;;;8.40;;
9547;SDS011;4812;51.992;8.648;2023-02-28T11:59:48;8.50;;;7.87;;
9547;SDS011;4812;51.992;8.648;2023-02-28T12:02:24;8.60;;;8.10;;
9547;SDS011;4812;51.992;8.648;2023-02-28T12:04:58;8.70;;;8.20;;
9547;SDS011;4812;51.992;8.648;2023-02-28T12:07:43;8.47;;;7.97;;
9547;SDS011;4812;51.992;8.648;2023-02-28T12:10:18;8.90;;;8.30;;
9547;SDS011;4812;51.992;8.648;2023-02-28T12:12:53;8.23;;;7.73;;
9547;SDS011;4812;51.992;8.648;2023-02-28T12:18:26;9.50;;;8.90;;
9547;SDS011;4812;51.992;8.648;2023-02-28T12:21:07;8.77;;;8.20;;
9547;SDS011;4812;51.992;8.648;2023-02-28T12:23:54;9.03;;;8.53;;
9547;SDS011;4812;51.992;8.648;2023-02-28T12:26:30;9.17;;;8.67;;
9547;SDS011;4812;51.992;8.648;2023-02-28T12:29:02;9.50;;;8.77;;
9547;SDS011;4812;51.992;8.648;2023-02-28T12:31:38;8.93;;;8.33;;
9547;SDS011;4812;51.992;8.648;2023-02-28T12:34:10;8.93;;;8.33;;
9547;SDS011;4812;51.992;8.648;2023-02-28T12:36:40;9.10;;;8.60;;
9547;SDS011;4812;51.992;8.648;2023-02-28T12:39:10;10.17;;;9.37;;
9547;SDS011;4812;51.992;8.648;2023-02-28T12:41:41;9.47;;;8.83;;
9547;SDS011;4812;51.992;8.648;2023-02-28T12:44:11;9.47;;;8.77;;
9547;SDS011;4812;51.992;8.648;2023-02-28T12:46:43;9.27;;;8.77;;
9547;SDS011;4812;51.992;8.648;2023-02-28T12:49:13;8.80;;;8.30;;
9547;SDS011;4812;51.992;8.648;2023-02-28T12:51:44;9.33;;;8.73;;
9547;SDS011;4812;51.992;8.648;2023-02-28T12:54:15;9.10;;;8.50;;
9547;SDS011;4812;51.992;8.648;2023-02-28T12:56:49;9.00;;;8.30;;
9547;SDS011;4812;51.992;8.648;2023-02-28T12:59:23;9.60;;;8.80;;
9547;SDS011;4812;51.992;8.648;2023-02-28T13:02:09;8.80;;;8.30;;
9547;SDS011;4812;51.992;8.648;2023-02-28T13:04:44;8.97;;;8.37;;
9547;SDS011;4812;51.992;8.648;2023-02-28T13:07:36;9.33;;;8.40;;
9547;SDS011;4812;51.992;8.648;2023-02-28T13:10:14;9.50;;;8.90;;
9547;SDS011;4812;51.992;8.648;2023-02-28T13:12:48;9.43;;;8.93;;
9547;SDS011;4812;51.992;8.648;2023-02-28T13:15:17;9.73;;;8.90;;
9547;SDS011;4812;51.992;8.648;2023-02-28T13:17:49;9.60;;;9.00;;
9547;SDS011;4812;51.992;8.648;2023-02-28T13:20:19;9.93;;;9.17;;
9547;SDS011;4812;51.992;8.648;2023-02-28T13:22:48;9.73;;;9.13;;
9547;SDS011;4812;51.992;8.648;2023-02-28T13:34:41;10.00;;;9.30;;
9547;SDS011;4812;51.992;8.648;2023-02-28T13:37:31;9.97;;;9.30;;
9547;SDS011;4812;51.992;8.648;2023-02-28T13:40:06;9.63;;;9.03;;
9547;SDS011;4812;51.992;8.648;2023-02-28T13:42:54;10.57;;;9.97;;
9547;SDS011;4812;51.992;8.648;2023-02-28T13:45:23;10.60;;;9.70;;
9547;SDS011;4812;51.992;8.648;2023-02-28T13:47:53;10.27;;;9.67;;
9547;SDS011;4812;51.992;8.648;2023-02-28T13:50:26;10.20;;;9.50;;
9547;SDS011;4812;51.992;8.648;2023-02-28T13:52:59;10.47;;;9.77;;
9547;SDS011;4812;51.992;8.648;2023-02-28T13:55:33;10.17;;;9.47;;
9547;SDS011;4812;51.992;8.648;2023-02-28T13:58:18;10.10;;;9.40;;
9547;SDS011;4812;51.992;8.648;2023-02-28T14:00:59;10.87;;;10.03;;
9547;SDS011;4812;51.992;8.648;2023-02-28T14:03:35;10.67;;;9.80;;
9547;SDS011;4812;51.992;8.648;2023-02-28T14:06:14;10.10;;;9.50;;
9547;SDS011;4812;51.992;8.648;2023-02-28T14:08:45;10.10;;;9.50;;
9547;SDS011;4812;51.992;8.648;2023-02-28T14:11:24;10.03;;;9.43;;
9547;SDS011;4812;51.992;8.648;2023-02-28T14:13:54;10.27;;;9.50;;
9547;SDS011;4812;51.992;8.648;2023-02-28T14:16:23;10.30;;;9.60;;
9547;SDS011;4812;51.992;8.648;2023-02-28T14:18:55;10.17;;;9.47;;
9547;SDS011;4812;51.992;8.648;2023-02-28T14:21:25;10.43;;;9.70;;
9547;SDS011;4812;51.992;8.648;2023-02-28T14:27:00;10.77;;;9.97;;
9547;SDS011;4812;51.992;8.648;2023-02-28T14:29:39;10.20;;;9.50;;
9547;SDS011;4812;51.992;8.648;2023-02-28T14:32:21;10.40;;;9.40;;
9547;SDS011;4812;51.992;8.648;2023-02-28T14:34:56;10.67;;;9.90;;
9547;SDS011;4812;51.992;8.648;2023-02-28T14:37:31;10.53;;;9.93;;
9547;SDS011;4812;51.992;8.648;2023-02-28T14:40:01;9.70;;;9.10;;
9547;SDS011;4812;51.992;8.648;2023-02-28T14:42:31;10.23;;;9.53;;
9547;SDS011;4812;51.992;8.648;2023-02-28T14:45:00;10.00;;;9.30;;
9547;SDS011;4812;51.992;8.648;2023-02-28T14:47:28;10.07;;;9.47;;
9547;SDS011;4812;51.992;8.648;2023-02-28T14:49:58;9.57;;;8.87;;
9547;SDS011;4812;51.992;8.648;2023-02-28T14:52:26;9.57;;;9.07;;
9547;SDS011;4812;51.992;8.648;2023-02-28T14:54:57;9.47;;;8.97;;
9547;SDS011;4812;51.992;8.648;2023-02-28T14:57:27;10.00;;;9.20;;
9547;SDS011;4812;51.992;8.648;2023-02-28T15:00:03;9.63;;;8.93;;
9547;SDS011;4812;51.992;8.648;2023-02-28T15:02:37;10.10;;;9.30;;
9547;SDS011;4812;51.992;8.648;2023-02-28T15:08:04;9.83;;;9.20;;
9547;SDS011;4812;51.992;8.648;2023-02-28T15:10:34;10.37;;;9.70;;
9547;SDS011;4812;51.992;8.648;2023-02-28T15:13:02;9.40;;;8.60;;
9547;SDS011;4812;51.992;8.648;2023-02-28T15:15:35;10.20;;;9.50;;
9547;SDS011;4812;51.992;8.648;2023-02-28T15:18:28;9.83;;;9.03;;
9547;SDS011;4812;51.992;8.648;2023-02-28T15:20:58;10.10;;;9.47;;
9547;SDS011;4812;51.992;8.648;2023-02-28T15:23:29;10.17;;;9.57;;
9547;SDS011;4812;51.992;8.648;2023-02-28T15:25:59;10.23;;;9.43;;
9547;SDS011;4812;51.992;8.648;2023-02-28T15:28:27;9.60;;;9.00;;
9547;SDS011;4812;51.992;8.648;2023-02-28T15:30:56;10.00;;;9.20;;
9547;SDS011;4812;51.992;8.648;2023-02-28T15:33:26;9.67;;;8.97;;
9547;SDS011;4812;51.992;8.648;2023-02-28T15:36:04;9.57;;;8.97;;
9547;SDS011;4812;51.992;8.648;2023-02-28T15:38:34;9.90;;;9.10;;
9547;SDS011;4812;51.992;8.648;2023-02-28T15:41:04;9.60;;;8.93;;
9547;SDS011;4812;51.992;8.648;2023-02-28T15:43:34;10.47;;;9.67;;
9547;SDS011;4812;51.992;8.648;2023-02-28T15:46:03;10.27;;;9.57;;
9547;SDS011;4812;51.992;8.648;2023-02-28T15:48:33;9.90;;;9.23;;
9547;SDS011;4812;51.992;8.648;2023-02-28T15:51:05;10.47;;;9.77;;
9547;SDS011;4812;51.992;8.648;2023-02-28T15:53:35;10.23;;;9.60;;
9547;SDS011;4812;51.992;8.648;2023-02-28T15:56:06;10.67;;;9.73;;
9547;SDS011;4812;51.992;8.648;2023-02-28T15:58:48;10.57;;;9.67;;
9547;SDS011;4812;51.992;8.648;2023-02-28T16:01:17;10.30;;;9.60;;
9547;SDS011;4812;51.992;8.648;2023-02-28T16:03:48;10.77;;;9.97;;
9547;SDS011;4812;51.992;8.648;2023-02-28T16:06:33;10.30;;;9.60;;
9547;SDS011;4812;51.992;8.648;2023-02-28T16:09:03;10.20;;;9.60;;
9547;SDS011;4812;51.992;8.648;2023-02-28T16:11:33;9.93;;;9.20;;
9547;SDS011;4812;51.992;8.648;2023-02-28T16:14:02;10.27;;;9.47;;
9547;SDS011;4812;51.992;8.648;2023-02-28T16:16:29;10.40;;;9.77;;
9547;SDS011;4812;51.992;8.648;2023-02-28T16:18:58;10.67;;;9.83;;
9547;SDS011;4812;51.992;8.648;2023-02-28T16:21:25;10.73;;;10.03;;
9547;SDS011;4812;51.992;8.648;2023-02-28T16:23:54;11.00;;;10.20;;
9547;SDS011;4812;51.992;8.648;2023-02-28T16:26:21;10.53;;;9.73;;
9547;SDS011;4812;51.992;8.648;2023-02-28T16:28:51;10.20;;;9.47;;
9547;SDS011;4812;51.992;8.648;2023-02-28T16:31:19;10.60;;;9.53;;
9547;SDS011;4812;51.992;8.648;2023-02-28T16:33:47;10.63;;;9.60;;
9547;SDS011;4812;51.992;8.648;2023-02-28T16:36:15;10.80;;;10.10;;
9547;SDS011;4812;51.992;8.648;2023-02-28T16:38:44;9.40;;;8.70;;
9547;SDS011;4812;51.992;8.648;2023-02-28T16:41:12;9.70;;;9.10;;
9547;SDS011;4812;51.992;8.648;2023-02-28T16:43:46;9.47;;;8.87;;
9547;SDS011;4812;51.992;8.648;2023-02-28T16:49:15;9.33;;;8.73;;
9547;SDS011;4812;51.992;8.648;2023-02-28T16:51:43;10.00;;;9.30;;
9547;SDS011;4812;51.992;8.648;2023-02-28T16:54:10;9.27;;;8.67;;
9547;SDS011;4812;51.992;8.648;2023-02-28T16:56:38;9.70;;;9.10;;
9547;SDS011;4812;51.992;8.648;2023-02-28T17:01:55;9.57;;;8.77;;
9547;SDS011;4812;51.992;8.648;2023-02-28T17:04:25;9.50;;;8.80;;
9547;SDS011;4812;51.992;8.648;2023-02-28T17:06:53;10.00;;;9.00;;
9547;SDS011;4812;51.992;8.648;2023-02-28T17:09:21;10.07;;;9.37;;
9547;SDS011;4812;51.992;8.648;2023-02-28T17:14:44;9.93;;;9.23;;
9547;SDS011;4812;51.992;8.648;2023-02-28T17:20:12;10.50;;;9.30;;
9547;SDS011;4812;51.992;8.648;2023-02-28T17:22:40;9.87;;;9.17;;
9547;SDS011;4812;51.992;8.648;2023-02-28T17:25:08;11.10;;;10.20;;
9547;SDS011;4812;51.992;8.648;2023-02-28T17:27:37;11.00;;;9.90;;
9547;SDS011;4812;51.992;8.648;2023-02-28T17:33:03;10.00;;;9.20;;
9547;SDS011;4812;51.992;8.648;2023-02-28T17:35:32;10.57;;;9.67;;
9547;SDS011;4812;51.992;8.648;2023-02-28T17:37:59;10.70;;;9.77;;
9547;SDS011;4812;51.992;8.648;2023-02-28T17:40:27;9.77;;;8.90;;
9547;SDS011;4812;51.992;8.648;2023-02-28T17:45:43;10.63;;;9.63;;